Portada
METAR-TAF:

METAR-TAF

Aeroports :

Weno, Micronèsia

latitud: 07-28N, longitud: 151-51E, altitud: 3 m

Observació

L'informe es va fer fa 46 minuts, a les 19:50 UTC
Vent calma
Temperatura 27°C
Humitat 84%
Pressió 1006 hPa
Visibilitat: 24.1 km
Escasses núvols a una alçada de 1400 ft
Cel ennuvolat a una alçada de 28000 ft

METAR: PTKK 141950Z 00000KT 15SM FEW014 BKN280 27/24 A2971 RMK SLP062 T02670243

Hora: 06:36 (20:36 UTC)

Pronòstic

L'informe es va fer fa 2 hores i 32 minuts, a les 18:04 UTC
Pronòstic vàlid del 14 a les 18 UTC al 15 a les 18 UTC
Vent 5 kt amb direcció variable
Visibilitat: 10 km
Escasses núvols a una alçada de 1800 ft
Núvols disperses a una alçada de 5000 ft
A partir de les 15 a les 0200 UTC
Vent 8 kt del Est/Sud-Est
Visibilitat: 10 km
Escasses núvols a una alçada de 1800 ft
Núvols disperses a una alçada de 4000 ft
xàfecs en les proximitats

TAF: PTKK 141804Z 1418/1518 VRB05KT P6SM FEW018 SCT050 FM150200 12008KT P6SM VCSH FEW018 SCT040

Observacions i pronòstics meteorològics de més de 4000 aeroports (METAR i TAF).

Les estacions disponibles són els punts grocs i vermells al mapa.

Posi el ratolí al punt desitjat per veure el nom de l'estació.

Feu clic per veure les observacions i els pronòstics meteorològics.

Per canviar el mapa: feu clic els botons verds amb una creu de color negre per apropar; al botó verd amb un guió per allunyar la imatge; o en les fletxes verdes per a mapes adjacents.


METAR-TAF: